Time;durP1;ratioP1;P1;durP2;ratioP2;P2;SDS_P1;SDS_P2;PMS_P1;PMS_P2;Temp;Humidity;BMP_temperature;BMP_pressure;BME280_temperature;BME280_humidity;BME280_pressure;Samples;Min_cycle;Max_cycle;Signal;HPM_P1;HPM_P2
2022/12/12 00:00:26;;;;;;;44.00;21.58;;;;;;;3.43;63.63;99287.06;4951269;29;20153;-77
2022/12/12 00:02:52;;;;;;;42.85;21.02;;;;;;;3.41;63.72;99287.09;4951245;29;20141;-78
2022/12/12 00:05:19;;;;;;;46.58;22.67;;;;;;;3.39;63.69;99281.94;4953618;28;20098;-78
2022/12/12 00:07:45;;;;;;;46.00;22.85;;;;;;;3.38;63.80;99284.59;4954699;29;20137;-77
2022/12/12 00:10:11;;;;;;;42.28;21.92;;;;;;;3.37;64.15;99293.31;4954582;29;20506;-77
2022/12/12 00:12:38;;;;;;;44.58;21.35;;;;;;;3.38;64.26;99287.19;4954673;29;20142;-77
2022/12/12 00:15:05;;;;;;;41.50;21.75;;;;;;;3.38;64.09;99289.81;4954372;29;20106;-77
2022/12/12 00:17:31;;;;;;;42.47;22.45;;;;;;;3.38;63.81;99284.59;4954293;29;20086;-78
2022/12/12 00:19:58;;;;;;;41.55;22.20;;;;;;;3.37;63.80;99286.34;4954485;29;20489;-78
2022/12/12 00:22:24;;;;;;;47.20;22.67;;;;;;;3.37;63.95;99283.72;4954602;29;20481;-78
2022/12/12 00:24:50;;;;;;;41.05;21.50;;;;;;;3.36;63.76;99289.84;4954484;29;20059;-78
2022/12/12 00:27:17;;;;;;;46.33;22.83;;;;;;;3.36;63.86;99286.38;4954523;29;20110;-78
2022/12/12 00:29:43;;;;;;;45.40;21.98;;;;;;;3.35;64.22;99288.16;4954342;29;20142;-78
2022/12/12 00:32:09;;;;;;;44.88;22.42;;;;;;;3.36;63.64;99283.78;4954227;29;20601;-78
2022/12/12 00:34:36;;;;;;;42.70;21.35;;;;;;;3.35;63.77;99301.16;4954103;29;20059;-77
2022/12/12 00:37:02;;;;;;;39.97;22.30;;;;;;;3.34;63.71;99299.47;4953971;29;20494;-78
2022/12/12 00:39:28;;;;;;;48.90;22.75;;;;;;;3.33;64.04;99291.72;4954368;29;20146;-78
2022/12/12 00:41:55;;;;;;;45.83;23.70;;;;;;;3.32;63.95;99292.63;4954404;29;20094;-78
2022/12/12 00:44:21;;;;;;;42.67;21.42;;;;;;;3.30;63.99;99292.66;4954129;29;20059;-78
2022/12/12 00:46:47;;;;;;;39.97;21.02;;;;;;;3.29;63.82;99290.13;4953691;29;20134;-78
2022/12/12 00:49:14;;;;;;;40.63;20.65;;;;;;;3.29;64.22;99300.53;4954340;29;20118;-78
2022/12/12 00:51:42;;;;;;;47.40;22.52;;;;;;;3.27;64.19;99292.78;4954098;29;20121;-78
2022/12/12 00:54:08;;;;;;;47.28;22.17;;;;;;;3.28;63.82;99291.88;4953972;29;20414;-78
2022/12/12 00:56:35;;;;;;;38.38;20.88;;;;;;;3.30;64.17;99291.81;4952340;29;20134;-77
2022/12/12 00:59:02;;;;;;;47.10;22.58;;;;;;;3.30;64.22;99297.00;5055302;23;20416;-86
2022/12/12 01:01:31;;;;;;;44.50;23.23;;;;;;;3.31;64.20;99301.31;4993493;28;20065;-88
2022/12/12 01:03:58;;;;;;;42.90;22.23;;;;;;;3.31;64.34;99298.72;4993128;28;20081;-88
2022/12/12 01:06:26;;;;;;;47.13;24.10;;;;;;;3.33;64.08;99302.13;4992887;28;20085;-86
2022/12/12 01:08:53;;;;;;;46.70;23.55;;;;;;;3.33;64.00;99308.16;4992805;28;20058;-88
2022/12/12 01:11:20;;;;;;;48.15;23.98;;;;;;;3.33;64.08;99318.56;4993206;28;20378;-86
2022/12/12 01:13:48;;;;;;;50.38;23.90;;;;;;;3.33;63.86;99315.13;4975780;28;20051;-87
2022/12/12 01:16:15;;;;;;;50.65;25.20;;;;;;;3.33;64.00;99317.72;4991656;28;20061;-87
2022/12/12 01:18:42;;;;;;;51.25;24.67;;;;;;;3.28;64.06;99317.03;4975303;28;20137;-84
2022/12/12 01:21:11;;;;;;;47.83;24.00;;;;;;;3.25;64.23;99324.03;4992610;28;20050;-87
2022/12/12 01:23:38;;;;;;;47.17;24.20;;;;;;;3.23;64.26;99325.84;4992943;28;20057;-88
2022/12/12 01:26:08;;;;;;;47.33;22.90;;;;;;;3.22;64.18;99325.91;4992634;28;20050;-87
2022/12/12 01:28:36;;;;;;;47.67;23.38;;;;;;;3.22;64.29;99320.69;4992463;28;20065;-88
2022/12/12 01:31:03;;;;;;;45.97;24.55;;;;;;;3.23;64.22;99327.59;4992419;28;20526;-85
2022/12/12 01:33:30;;;;;;;45.60;23.77;;;;;;;3.23;64.39;99331.06;4975223;28;20104;-87
2022/12/12 01:35:57;;;;;;;48.97;24.00;;;;;;;3.22;64.64;99326.72;4992497;28;20054;-84
2022/12/12 01:38:24;;;;;;;47.22;24.38;;;;;;;3.20;64.09;99328.53;4975169;28;20054;-88
2022/12/12 01:40:52;;;;;;;48.42;24.83;;;;;;;3.20;64.39;99328.53;4992255;28;20050;-88
2022/12/12 01:43:20;;;;;;;44.53;21.42;;;;;;;3.18;64.08;99330.34;4992158;28;20059;-87
2022/12/12 01:45:56;;;;;;;45.75;23.90;;;;;;;3.15;64.36;99334.78;4992138;28;20396;-85
2022/12/12 01:48:30;;;;;;;45.63;21.65;;;;;;;3.13;64.32;99334.84;4992347;28;20050;-88
2022/12/12 01:51:01;;;;;;;45.83;23.75;;;;;;;3.10;64.31;99332.38;4992333;28;20141;-87
2022/12/12 01:53:28;;;;;;;49.22;23.58;;;;;;;3.08;64.50;99332.41;4974880;28;20500;-85
2022/12/12 01:55:57;;;;;;;45.05;23.35;;;;;;;3.06;64.81;99328.16;4991893;28;20081;-88
2022/12/12 01:58:24;;;;;;;49.45;24.70;;;;;;;3.05;64.54;99332.50;4992064;28;20059;-87
2022/12/12 02:00:51;;;;;;;47.80;23.23;;;;;;;3.04;64.38;99328.22;4992048;28;20475;-87
2022/12/12 02:03:17;;;;;;;44.25;23.20;;;;;;;3.05;64.60;99329.91;4991902;28;20752;-89
2022/12/12 02:05:55;;;;;;;48.40;24.15;;;;;;;3.05;64.82;99329.03;4992337;28;20116;-88
2022/12/12 02:08:22;;;;;;;49.85;25.15;;;;;;;3.09;64.65;99331.50;4991861;28;20055;-88
2022/12/12 02:10:50;;;;;;;46.05;23.50;;;;;;;3.10;64.50;99332.38;4991883;28;20058;-86
2022/12/12 02:13:29;;;;;;;50.67;24.58;;;;;;;3.07;64.89;99335.06;4991670;28;20057;-84
2022/12/12 02:16:14;;;;;;;46.30;24.17;;;;;;;3.09;64.06;99336.72;4991704;28;20046;-87
2022/12/12 02:18:48;;;;;;;43.95;22.55;;;;;;;3.09;64.77;99336.72;4991755;28;20053;-88
2022/12/12 02:21:33;;;;;;;46.75;23.33;;;;;;;3.09;64.60;99338.44;4991617;28;20058;-87
2022/12/12 02:24:32;;;;;;;44.15;23.48;;;;;;;3.09;64.47;99336.72;4991725;28;20058;-86
2022/12/12 02:27:34;;;;;;;49.70;24.42;;;;;;;3.13;64.70;99333.09;4991209;28;20108;-88
2022/12/12 02:30:09;;;;;;;47.75;22.67;;;;;;;3.17;64.79;99335.63;4991391;28;20108;-86
2022/12/12 02:32:57;;;;;;;43.72;22.83;;;;;;;3.16;64.76;99337.34;4991550;28;20073;-84
2022/12/12 02:35:48;;;;;;;46.55;23.83;;;;;;;3.18;64.56;99334.69;4991387;28;20081;-84
2022/12/12 02:38:36;;;;;;;48.60;23.65;;;;;;;3.20;64.73;99343.28;4991238;28;20050;-88
2022/12/12 02:41:32;;;;;;;44.90;22.95;;;;;;;3.19;64.24;99332.06;4974318;28;20064;-86
2022/12/12 02:44:13;;;;;;;43.45;21.80;;;;;;;3.22;64.01;99334.53;4984046;28;20058;-85
2022/12/12 02:46:52;;;;;;;44.05;23.10;;;;;;;3.20;64.36;99336.34;4991044;28;20061;-88
2022/12/12 02:49:28;;;;;;;45.08;23.88;;;;;;;3.21;64.16;99329.41;4974425;28;20327;-88
2022/12/12 02:51:56;;;;;;;47.63;24.00;;;;;;;3.22;63.94;99333.69;4991440;28;20058;-87
2022/12/12 02:54:23;;;;;;;44.15;22.48;;;;;;;3.20;63.89;99331.16;4991682;28;20081;-84
2022/12/12 02:56:53;;;;;;;43.70;23.55;;;;;;;3.17;63.92;99328.63;4990964;28;20459;-88
2022/12/12 02:59:30;;;;;;;45.92;22.13;;;;;;;3.17;63.69;99338.22;4991063;28;20503;-87
2022/12/12 03:02:06;;;;;;;42.80;22.98;;;;;;;3.11;63.88;99344.47;4991571;28;20057;-87
2022/12/12 03:07:52;;;;;;;41.58;21.70;;;;;;;3.08;64.18;99334.16;4993803;28;20062;-88
2022/12/12 03:10:28;;;;;;;45.03;22.00;;;;;;;3.06;64.37;99339.41;4991309;28;20411;-87
2022/12/12 03:13:29;;;;;;;40.83;21.52;;;;;;;3.04;64.19;99338.63;4991466;28;20136;-88
2022/12/12 03:16:23;;;;;;;42.67;21.92;;;;;;;3.02;63.80;99335.19;4990957;28;20422;-86
2022/12/12 03:19:11;;;;;;;41.92;20.75;;;;;;;3.00;64.17;99335.25;4991622;28;20058;-86
2022/12/12 03:21:56;;;;;;;42.72;21.98;;;;;;;2.95;63.71;99331.94;4991214;28;20054;-86
2022/12/12 03:24:42;;;;;;;40.95;21.30;;;;;;;2.94;63.89;99340.66;4991539;28;20062;-86
2022/12/12 03:27:15;;;;;;;42.10;21.20;;;;;;;2.94;64.06;99337.19;4973741;28;20050;-85
2022/12/12 03:29:47;;;;;;;38.58;21.02;;;;;;;2.91;64.09;99332.94;4991182;28;20046;-87
2022/12/12 03:32:18;;;;;;;42.00;21.55;;;;;;;2.93;64.13;99336.38;4991008;28;20190;-87
2022/12/12 03:34:51;;;;;;;39.08;20.75;;;;;;;2.91;64.24;99332.94;4990765;28;20051;-86
2022/12/12 03:37:20;;;;;;;38.75;20.23;;;;;;;2.93;64.35;99338.09;4973730;28;20067;-87
2022/12/12 03:39:52;;;;;;;40.03;20.17;;;;;;;2.94;64.25;99334.59;4993011;28;20073;-87
2022/12/12 03:42:19;;;;;;;;;;;;;;;2.94;64.52;99332.84;4995173;28;20130;-87
2022/12/12 03:44:51;;;;;;;36.00;17.80;;;;;;;2.96;63.88;99328.44;4977654;28;20011;-86
2022/12/12 03:47:27;;;;;;;32.60;18.10;;;;;;;2.95;63.80;99333.72;4994443;28;20069;-87
2022/12/12 03:50:06;;;;;;;37.50;18.30;;;;;;;2.93;63.82;99328.56;4994584;28;20508;-83
2022/12/12 03:52:44;;;;;;;37.20;19.92;;;;;;;2.93;64.23;99338.97;4977334;28;20133;-87
2022/12/12 03:55:25;;;;;;;39.25;19.60;;;;;;;2.92;63.83;99328.59;4977291;28;20061;-88
2022/12/12 03:57:58;;;;;;;38.28;20.40;;;;;;;2.92;63.97;99337.25;4994425;28;20054;-88
2022/12/12 04:00:29;;;;;;;37.80;20.45;;;;;;;2.92;64.09;99337.25;4976950;28;20062;-87
2022/12/12 04:03:14;;;;;;;42.25;20.67;;;;;;;2.90;64.25;99352.06;4994457;28;20055;-88
2022/12/12 04:06:25;;;;;;;38.45;20.70;;;;;;;2.92;63.90;99350.25;4994595;28;20062;-86
2022/12/12 04:08:31;;;;;;;42.30;20.15;;;;;;;2.93;63.67;99351.97;4994496;28;20054;-88
2022/12/12 04:14:12;;;;;;;39.60;19.55;;;;;;;2.94;63.94;99352.78;4994167;28;20113;-89
2022/12/12 04:16:43;;;;;;;43.17;20.88;;;;;;;2.93;64.03;99359.75;4993822;28;20046;-89
2022/12/12 04:26:37;;;;;;;35.55;20.30;;;;;;;2.88;64.03;99359.06;4994122;28;20050;-86
2022/12/12 04:28:27;;;;;;;34.17;18.95;;;;;;;2.91;64.12;99364.13;4993629;28;20047;-88
2022/12/12 04:30:59;;;;;;;36.00;19.58;;;;;;;2.90;63.97;99361.59;4976411;28;20141;-87
2022/12/12 04:33:32;;;;;;;38.67;19.95;;;;;;;2.89;64.17;99359.91;4976588;28;20427;-87
2022/12/12 04:36:00;;;;;;;36.97;20.35;;;;;;;2.90;64.16;99374.59;4993608;28;20426;-87
2022/12/12 04:38:28;;;;;;;38.30;20.02;;;;;;;2.88;64.00;99374.66;4993678;28;20062;-87
2022/12/12 04:40:58;;;;;;;34.35;19.33;;;;;;;2.87;63.91;99372.94;4993732;28;20050;-88
2022/12/12 04:43:30;;;;;;;35.97;19.73;;;;;;;2.88;64.25;99374.66;4993741;28;20064;-85
2022/12/12 04:46:03;;;;;;;41.20;20.88;;;;;;;2.88;64.55;99379.00;4976336;28;20064;-86
2022/12/12 04:48:36;;;;;;;39.58;20.65;;;;;;;2.89;64.21;99375.50;4993491;28;20065;-88
2022/12/12 04:51:08;;;;;;;35.88;20.25;;;;;;;2.88;64.28;99379.84;4993730;28;20104;-87
2022/12/12 04:53:39;;;;;;;36.50;19.52;;;;;;;2.86;63.96;99379.03;4993308;28;20507;-87
2022/12/12 04:56:10;;;;;;;38.00;20.65;;;;;;;2.83;63.93;99372.19;4993369;28;20050;-88
2022/12/12 04:58:38;;;;;;;38.45;20.88;;;;;;;2.83;64.42;99380.00;4993252;28;20062;-87
2022/12/12 05:01:21;;;;;;;37.33;19.95;;;;;;;2.80;64.54;99379.25;4993286;28;20054;-88
2022/12/12 05:03:56;;;;;;;38.72;20.48;;;;;;;2.81;64.31;99383.53;4993244;28;20136;-86
2022/12/12 05:06:32;;;;;;;35.03;19.90;;;;;;;2.82;64.65;99380.03;4975785;28;20072;-87
2022/12/12 05:09:00;;;;;;;37.72;19.83;;;;;;;2.86;64.67;99379.03;4993203;28;20136;-87
2022/12/12 05:11:27;;;;;;;42.40;21.30;;;;;;;2.88;64.34;99379.00;4993162;28;20414;-87
2022/12/12 05:13:54;;;;;;;40.60;21.45;;;;;;;2.90;64.72;99372.84;4976020;28;20054;-85
2022/12/12 05:16:26;;;;;;;39.42;20.23;;;;;;;2.91;64.88;99379.75;4992764;28;20054;-87
2022/12/12 05:18:53;;;;;;;36.33;19.98;;;;;;;2.94;64.07;99381.38;4975731;28;20487;-86
2022/12/12 05:21:19;;;;;;;36.08;20.40;;;;;;;2.96;64.28;99383.03;4992944;28;20515;-86
2022/12/12 05:23:46;;;;;;;38.03;20.25;;;;;;;2.97;64.43;99387.38;4993064;28;20054;-87
2022/12/12 05:26:30;;;;;;;40.80;20.00;;;;;;;2.94;64.19;99382.25;4975286;28;20084;-85
2022/12/12 05:28:57;;;;;;;40.42;20.65;;;;;;;2.99;64.38;99385.56;4992640;28;20096;-89
2022/12/12 05:31:32;;;;;;;40.08;19.80;;;;;;;2.99;64.45;99380.34;4992626;28;20562;-88
2022/12/12 05:33:58;;;;;;;37.80;21.20;;;;;;;2.96;63.79;99383.03;4992705;28;20137;-88
2022/12/12 05:36:25;;;;;;;40.22;20.85;;;;;;;2.95;64.23;99383.13;4992485;28;20077;-86
2022/12/12 05:38:51;;;;;;;43.20;22.25;;;;;;;2.92;64.42;99378.84;4992453;28;20137;-87
2022/12/12 05:41:18;;;;;;;41.28;22.42;;;;;;;2.91;64.44;99382.34;4975379;28;20051;-87
2022/12/12 05:43:44;;;;;;;36.38;19.42;;;;;;;2.90;64.30;99388.44;4975084;28;20054;-88
2022/12/12 05:46:11;;;;;;;38.30;19.77;;;;;;;2.92;64.25;99389.22;4992373;28;20065;-87
2022/12/12 05:48:38;;;;;;;42.65;21.55;;;;;;;2.93;64.54;99387.50;4992420;28;20092;-87
2022/12/12 05:51:05;;;;;;;38.22;20.88;;;;;;;2.93;64.74;99385.75;4992303;28;20054;-87
2022/12/12 05:53:31;;;;;;;37.67;20.20;;;;;;;2.97;64.73;99391.69;4992176;28;20586;-88
2022/12/12 05:56:10;;;;;;;35.05;19.92;;;;;;;2.98;64.77;99386.47;4975893;28;20050;-88
2022/12/12 05:58:36;;;;;;;39.67;20.58;;;;;;;3.01;64.80;99385.50;4974955;28;20101;-85
2022/12/12 06:01:04;;;;;;;37.95;20.58;;;;;;;3.04;64.54;99388.03;4974764;28;20064;-86
2022/12/12 06:03:31;;;;;;;38.63;20.30;;;;;;;3.05;64.09;99387.13;4991960;28;20054;-88
2022/12/12 06:05:58;;;;;;;38.70;21.00;;;;;;;3.08;64.58;99387.03;4991921;28;20062;-87
2022/12/12 06:08:25;;;;;;;36.55;20.45;;;;;;;3.09;64.01;99391.31;4974722;28;20065;-86
2022/12/12 06:10:51;;;;;;;40.78;21.30;;;;;;;3.11;64.27;99396.47;4991985;28;20058;-86
2022/12/12 06:13:18;;;;;;;42.80;21.75;;;;;;;3.12;64.38;99393.81;4992092;28;20550;-88
2022/12/12 06:15:44;;;;;;;38.60;21.08;;;;;;;3.13;64.51;99395.53;4992032;28;20054;-88
2022/12/12 06:18:11;;;;;;;38.42;20.63;;;;;;;3.14;64.41;99393.75;4991946;28;20404;-86
2022/12/12 06:20:37;;;;;;;40.88;21.05;;;;;;;3.14;63.78;99398.94;4974689;28;20050;-86
2022/12/12 06:23:04;;;;;;;35.67;19.65;;;;;;;3.15;63.94;99392.88;4992162;28;20050;-88
2022/12/12 06:25:31;;;;;;;44.53;21.85;;;;;;;3.16;64.08;99393.72;4991643;28;20056;-88
2022/12/12 06:27:57;;;;;;;45.05;22.17;;;;;;;3.16;64.01;99399.78;4991716;28;20524;-86
2022/12/12 06:30:24;;;;;;;43.83;21.33;;;;;;;3.16;63.71;99398.91;4974738;28;20086;-88
2022/12/12 06:32:51;;;;;;;40.17;20.67;;;;;;;3.16;63.90;99398.91;4974811;28;20050;-88
2022/12/12 06:35:17;;;;;;;42.33;22.25;;;;;;;3.16;64.29;99402.38;4991857;28;20057;-88
2022/12/12 06:37:44;;;;;;;41.38;21.77;;;;;;;3.16;63.90;99396.31;4991548;28;20486;-84
2022/12/12 06:40:11;;;;;;;41.72;22.45;;;;;;;3.16;63.84;99402.38;4989729;28;20145;-85
2022/12/12 06:42:38;;;;;;;47.17;22.77;;;;;;;3.17;63.55;99401.47;4999975;28;20054;-87
2022/12/12 06:45:13;;;;;;;40.85;20.52;;;;;;;3.17;63.66;99395.44;4990593;28;20058;-87
2022/12/12 06:47:40;;;;;;;39.75;20.80;;;;;;;3.16;64.05;99401.50;4991460;28;20061;-88
2022/12/12 06:50:07;;;;;;;38.30;21.10;;;;;;;3.14;63.39;99398.94;4991746;28;20050;-84
2022/12/12 06:52:34;;;;;;;40.78;21.45;;;;;;;3.15;64.06;99395.47;4991451;28;20062;-87
2022/12/12 06:55:00;;;;;;;42.40;21.23;;;;;;;3.13;64.09;99399.84;4991516;28;20085;-89
2022/12/12 06:57:27;;;;;;;40.95;21.50;;;;;;;3.12;63.67;99408.56;4991438;28;20129;-90
2022/12/12 07:02:22;;;;;;;39.10;20.92;;;;;;;3.10;63.69;99402.59;4970215;28;20050;-76
2022/12/12 07:04:56;;;;;;;34.63;19.42;;;;;;;3.10;63.61;99405.19;4971564;28;20511;-77
2022/12/12 07:07:22;;;;;;;36.60;19.95;;;;;;;3.10;63.42;99407.78;4971532;28;20074;-78
2022/12/12 07:09:49;;;;;;;40.10;20.15;;;;;;;3.09;63.91;99403.47;4977401;28;20109;-78
2022/12/12 07:12:15;;;;;;;40.10;20.75;;;;;;;3.08;63.30;99401.75;4973901;28;20093;-77
2022/12/12 07:14:41;;;;;;;42.13;20.75;;;;;;;3.06;63.82;99404.41;4991627;28;20548;-77
2022/12/12 07:17:08;;;;;;;39.95;20.13;;;;;;;3.04;63.50;99406.22;4994647;28;20105;-77
2022/12/12 07:19:34;;;;;;;37.28;20.35;;;;;;;3.02;63.11;99405.41;4994845;28;20133;-77
2022/12/12 07:22:01;;;;;;;39.67;19.92;;;;;;;3.00;63.40;99404.63;4994923;28;20153;-77
2022/12/12 07:24:35;;;;;;;43.05;21.40;;;;;;;2.99;63.45;99401.16;4995358;28;20141;-77
2022/12/12 07:27:02;;;;;;;42.10;20.88;;;;;;;2.96;63.35;99403.84;4994699;28;20054;-77
2022/12/12 07:29:28;;;;;;;33.58;17.95;;;;;;;2.95;63.27;99401.31;4994710;28;20532;-77
2022/12/12 07:31:54;;;;;;;38.30;19.65;;;;;;;2.91;63.42;99400.53;4994666;28;20370;-77
2022/12/12 07:34:21;;;;;;;41.55;20.77;;;;;;;2.90;63.15;99409.25;4995224;28;20087;-77
2022/12/12 07:36:48;;;;;;;42.80;21.10;;;;;;;2.87;63.24;99409.34;4993918;28;20193;-77
2022/12/12 07:39:15;;;;;;;40.50;20.00;;;;;;;2.84;63.63;99412.88;4994362;28;20575;-77
2022/12/12 07:41:46;;;;;;;40.83;21.15;;;;;;;2.83;63.29;99413.78;4994561;28;20065;-77
2022/12/12 07:44:12;;;;;;;45.25;20.50;;;;;;;2.80;63.56;99418.25;4994452;28;20093;-77
2022/12/12 07:46:38;;;;;;;38.45;19.00;;;;;;;2.79;63.49;99416.50;4994043;28;20085;-77
2022/12/12 07:49:05;;;;;;;40.28;20.33;;;;;;;2.78;63.63;99420.88;4994146;28;20058;-77
2022/12/12 07:51:31;;;;;;;44.15;20.83;;;;;;;2.78;63.82;99430.41;4994050;28;20113;-77
2022/12/12 07:53:58;;;;;;;40.47;21.02;;;;;;;2.76;63.32;99427.84;4994433;28;20081;-77
2022/12/12 07:56:24;;;;;;;44.80;20.55;;;;;;;2.77;63.97;99428.72;4993984;28;20158;-77
2022/12/12 07:58:52;;;;;;;36.97;19.35;;;;;;;2.77;63.84;99428.72;4993735;28;20082;-77
2022/12/12 08:01:22;;;;;;;40.25;20.67;;;;;;;2.77;63.36;99433.91;4993940;28;20528;-78
2022/12/12 08:03:49;;;;;;;41.17;21.20;;;;;;;2.79;63.88;99432.09;4993991;28;20058;-76
2022/12/12 08:06:16;;;;;;;40.13;20.77;;;;;;;2.79;63.53;99432.09;4993806;28;20133;-76
2022/12/12 08:08:44;;;;;;;41.42;20.77;;;;;;;2.79;63.66;99434.72;4993901;28;20125;-77
2022/12/12 08:11:14;;;;;;;39.97;21.30;;;;;;;2.81;63.62;99441.56;4993677;28;20055;-77
2022/12/12 08:13:41;;;;;;;44.13;22.05;;;;;;;2.82;64.23;99440.69;4993660;28;20058;-77
2022/12/12 08:16:19;;;;;;;44.35;22.10;;;;;;;2.83;63.86;99442.38;4993481;28;20145;-78
2022/12/12 08:18:46;;;;;;;39.95;20.75;;;;;;;2.88;63.81;99444.84;4993743;28;20066;-77
2022/12/12 08:21:14;;;;;;;43.83;22.92;;;;;;;2.89;63.60;99448.28;4993860;28;20081;-78
2022/12/12 08:23:50;;;;;;;43.90;20.65;;;;;;;2.91;63.66;99441.31;4993902;28;20057;-77
2022/12/12 08:26:17;;;;;;;43.88;21.85;;;;;;;2.92;64.12;99437.81;4992947;28;20128;-78
2022/12/12 08:28:44;;;;;;;42.83;21.23;;;;;;;2.95;64.16;99448.94;4993604;28;20142;-77
2022/12/12 08:31:15;;;;;;;43.03;22.33;;;;;;;2.95;63.85;99441.16;4992274;28;20509;-77
2022/12/12 08:33:42;;;;;;;37.42;20.80;;;;;;;2.98;63.84;99451.47;4976515;28;20061;-77
2022/12/12 08:36:19;;;;;;;40.10;22.20;;;;;;;2.99;64.25;99452.31;4993379;28;20058;-78
2022/12/12 08:38:46;;;;;;;44.72;22.40;;;;;;;3.03;63.83;99445.28;4976198;28;20073;-78
2022/12/12 08:41:13;;;;;;;47.80;22.55;;;;;;;3.05;64.28;99448.66;4992211;28;20133;-77
2022/12/12 08:43:41;;;;;;;42.70;22.00;;;;;;;3.07;64.24;99452.09;4993324;28;20137;-77
2022/12/12 08:46:09;;;;;;;46.45;24.10;;;;;;;3.10;64.26;99457.19;4993312;28;20058;-77
2022/12/12 08:48:43;;;;;;;43.83;22.88;;;;;;;3.13;64.26;99457.94;4993098;28;20046;-77
2022/12/12 08:51:09;;;;;;;48.03;23.00;;;;;;;3.15;63.78;99464.84;4993077;28;20054;-78
2022/12/12 08:53:35;;;;;;;46.20;22.90;;;;;;;3.17;63.89;99463.06;4993098;28;20100;-78
2022/12/12 08:56:02;;;;;;;46.78;23.98;;;;;;;3.19;63.84;99462.09;4992870;28;20054;-78
2022/12/12 08:58:28;;;;;;;46.70;24.05;;;;;;;3.21;63.95;99465.50;4993060;28;20082;-77
2022/12/12 09:00:55;;;;;;;55.08;24.83;;;;;;;3.24;63.97;99472.34;4992715;28;20078;-77
2022/12/12 09:03:21;;;;;;;51.65;24.83;;;;;;;3.25;63.67;99474.03;4975771;28;20486;-77
2022/12/12 09:05:54;;;;;;;43.42;22.13;;;;;;;3.23;63.34;99471.53;4992690;28;20065;-77
2022/12/12 09:08:21;;;;;;;52.00;25.30;;;;;;;3.22;63.03;99475.00;4992587;28;20492;-78
2022/12/12 09:10:49;;;;;;;45.22;23.52;;;;;;;3.19;63.42;99475.13;4992602;28;20094;-77
2022/12/12 09:13:15;;;;;;;52.58;23.60;;;;;;;3.16;63.73;99476.94;5000122;28;20124;-77
2022/12/12 09:15:42;;;;;;;47.25;23.33;;;;;;;3.13;63.52;99473.53;5012242;28;20054;-77
2022/12/12 09:18:08;;;;;;;44.25;22.00;;;;;;;3.11;63.66;99471.91;5012026;28;20543;-77
2022/12/12 09:20:34;;;;;;;44.15;22.35;;;;;;;3.10;63.74;99483.19;5012036;28;20092;-77
2022/12/12 09:23:01;;;;;;;46.53;22.42;;;;;;;3.07;63.58;99494.53;5012508;28;20050;-77
2022/12/12 09:25:27;;;;;;;50.10;22.73;;;;;;;3.06;63.37;99492.00;5011915;28;20140;-77
2022/12/12 09:27:53;;;;;;;43.67;23.60;;;;;;;3.03;63.42;99489.47;5010900;28;20138;-77
2022/12/12 09:30:20;;;;;;;47.78;22.70;;;;;;;3.02;63.18;99490.38;4998293;28;20104;-77
2022/12/12 09:32:47;;;;;;;48.47;24.05;;;;;;;2.99;63.43;99493.94;4992135;28;20058;-77
2022/12/12 09:35:13;;;;;;;51.55;25.40;;;;;;;2.97;63.56;99498.31;4992273;28;20090;-77
2022/12/12 09:37:40;;;;;;;47.53;23.98;;;;;;;2.93;63.12;99488.91;4991051;28;20050;-77
2022/12/12 09:40:09;;;;;;;45.42;22.63;;;;;;;2.89;63.30;99490.75;4992373;28;20082;-77
2022/12/12 09:42:45;;;;;;;47.15;23.95;;;;;;;2.84;63.52;99492.63;4992107;28;20137;-77
2022/12/12 09:45:12;;;;;;;47.03;23.08;;;;;;;2.81;63.07;99498.75;4992043;28;20129;-77
2022/12/12 09:47:45;;;;;;;45.67;23.08;;;;;;;2.78;63.18;99493.66;4992032;28;20054;-77
2022/12/12 09:50:26;;;;;;;33.90;17.67;;;;;;;2.76;63.63;99486.81;4991877;28;20186;-77
2022/12/12 09:52:55;;;;;;;44.22;21.83;;;;;;;2.79;63.66;99491.88;4992199;28;20059;-77
2022/12/12 09:55:31;;;;;;;43.33;21.08;;;;;;;2.79;64.19;99490.16;4991720;28;20054;-78
2022/12/12 09:58:04;;;;;;;45.25;21.05;;;;;;;2.82;63.88;99494.41;4991732;28;20301;-78
2022/12/12 10:00:35;;;;;;;41.17;21.75;;;;;;;2.84;64.22;99495.22;4991648;28;20093;-77
2022/12/12 10:03:20;;;;;;;48.85;23.98;;;;;;;2.89;63.99;99495.09;4974484;28;20058;-77
2022/12/12 10:06:06;;;;;;;47.78;22.70;;;;;;;2.86;63.99;99494.28;4991648;28;20137;-77
2022/12/12 10:09:23;;;;;;;41.28;21.30;;;;;;;2.90;64.04;99483.78;4991525;28;20153;-77
2022/12/12 10:11:53;;;;;;;46.22;22.48;;;;;;;2.92;63.55;99492.41;4991526;28;20578;-77
2022/12/12 10:14:35;;;;;;;45.28;22.60;;;;;;;2.91;64.12;99485.50;4991621;28;20116;-77
2022/12/12 10:17:28;;;;;;;45.03;22.67;;;;;;;2.92;63.65;99480.22;4991240;28;20054;-77
2022/12/12 10:19:59;;;;;;;43.47;21.08;;;;;;;2.97;64.20;99483.56;4983425;28;20097;-77
2022/12/12 10:22:39;;;;;;;42.25;22.27;;;;;;;2.98;64.13;99494.81;4991498;28;20094;-77
2022/12/12 10:25:17;;;;;;;46.83;23.42;;;;;;;3.00;63.49;99490.44;4991295;28;20089;-77
2022/12/12 10:27:44;;;;;;;45.25;21.38;;;;;;;3.03;63.98;99492.06;4991222;28;20493;-78
2022/12/12 10:30:16;;;;;;;45.78;23.35;;;;;;;3.02;63.80;99498.19;4991111;28;20560;-77
2022/12/12 10:33:04;;;;;;;44.22;22.73;;;;;;;3.02;63.54;99492.97;4991464;28;20050;-77
2022/12/12 10:35:57;;;;;;;42.88;22.35;;;;;;;3.02;63.60;99486.00;4991189;28;20058;-77
2022/12/12 10:38:41;;;;;;;47.92;23.52;;;;;;;3.04;63.65;99491.16;4991226;28;20050;-77
2022/12/12 10:41:18;;;;;;;44.72;20.88;;;;;;;3.08;64.23;99484.97;4991219;28;20058;-77
2022/12/12 10:43:57;;;;;;;43.10;22.20;;;;;;;3.12;63.94;99486.59;4991210;28;20125;-78
2022/12/12 10:46:48;;;;;;;45.03;23.17;;;;;;;3.15;63.88;99489.09;4990896;28;20117;-77
2022/12/12 10:49:18;;;;;;;44.72;22.13;;;;;;;3.21;63.83;99483.72;4991086;28;20053;-78
2022/12/12 10:51:46;;;;;;;45.20;24.67;;;;;;;3.24;63.56;99482.75;4991086;28;20100;-78
2022/12/12 10:54:19;;;;;;;49.92;25.55;;;;;;;3.23;63.24;99484.53;4990962;28;20089;-77
2022/12/12 10:57:13;;;;;;;48.83;25.50;;;;;;;3.20;63.34;99474.22;4990621;28;20062;-77
2022/12/12 10:59:50;;;;;;;44.83;22.70;;;;;;;3.21;63.64;99481.09;4990709;28;20463;-77
2022/12/12 11:02:39;;;;;;;45.75;22.67;;;;;;;3.18;64.04;99478.59;4989638;28;20054;-77
2022/12/12 11:05:16;;;;;;;44.70;23.13;;;;;;;3.22;63.94;99472.41;4974141;28;20424;-77
2022/12/12 11:07:49;;;;;;;44.65;22.98;;;;;;;3.23;64.15;99476.72;4989676;28;20532;-77
2022/12/12 11:10:24;;;;;;;44.42;23.20;;;;;;;3.25;63.88;99467.09;4991076;28;20062;-77
2022/12/12 11:13:02;;;;;;;41.55;22.10;;;;;;;3.28;63.99;99481.75;4991028;28;20086;-77
2022/12/12 11:15:42;;;;;;;44.80;23.00;;;;;;;3.28;64.05;99483.53;4989373;28;20234;-77
2022/12/12 11:18:17;;;;;;;41.78;22.13;;;;;;;3.28;63.55;99483.53;4990740;28;20099;-78
2022/12/12 11:20:47;;;;;;;39.33;21.95;;;;;;;3.30;63.99;99489.53;4990825;28;20077;-77
2022/12/12 11:23:23;;;;;;;44.50;23.00;;;;;;;3.28;63.93;99486.13;4990788;28;20093;-77
2022/12/12 11:26:01;;;;;;;42.83;22.85;;;;;;;3.28;63.77;99484.38;4990535;28;20062;-77
2022/12/12 11:28:32;;;;;;;42.67;23.48;;;;;;;3.29;63.51;99487.81;4990761;28;20081;-77
2022/12/12 11:31:05;;;;;;;44.75;23.73;;;;;;;3.30;63.61;99489.53;4990682;28;20141;-77
2022/12/12 11:33:45;;;;;;;42.63;21.77;;;;;;;3.30;63.51;99484.31;4988303;28;20078;-77
2022/12/12 11:36:22;;;;;;;39.90;21.65;;;;;;;3.33;64.11;99484.22;4990749;28;20085;-77
2022/12/12 11:38:54;;;;;;;44.13;23.15;;;;;;;3.37;64.16;99475.44;4990190;28;20088;-77
2022/12/12 11:41:21;;;;;;;41.97;22.25;;;;;;;3.43;64.53;99477.81;4990579;28;20058;-77
2022/12/12 11:43:48;;;;;;;47.55;23.08;;;;;;;3.48;64.39;99480.28;4990581;28;20116;-77
2022/12/12 11:46:15;;;;;;;43.55;23.05;;;;;;;3.52;63.95;99474.09;4990520;28;20137;-77
2022/12/12 11:48:45;;;;;;;42.58;23.40;;;;;;;3.57;64.02;99471.31;4989061;28;20112;-77
2022/12/12 11:51:28;;;;;;;50.53;23.98;;;;;;;3.58;63.89;99460.88;4990303;28;20058;-77
2022/12/12 11:53:54;;;;;;;45.67;22.63;;;;;;;3.63;63.94;99456.34;4973235;28;20058;-77
2022/12/12 11:56:31;;;;;;;47.28;22.38;;;;;;;3.63;63.64;99456.34;4995149;28;20134;-77
2022/12/12 11:59:10;;;;;;;39.65;21.75;;;;;;;3.65;63.68;99448.50;4990392;28;20046;-77
2022/12/12 12:02:07;;;;;;;39.92;22.00;;;;;;;3.68;63.37;99445.78;4993467;28;20504;-78